createdAt,value
2023-03-16T00:00:18.278Z,92.89
2023-03-16T00:02:45.098Z,92.58
2023-03-16T00:05:13.856Z,92.73
2023-03-16T00:07:42.275Z,93.03
2023-03-16T00:10:12.541Z,93.34
2023-03-16T00:12:40.039Z,93.13
2023-03-16T00:15:07.447Z,92.52
2023-03-16T00:17:34.938Z,93.18
2023-03-16T00:20:06.916Z,93.00
2023-03-16T00:22:34.236Z,93.39
2023-03-16T00:25:01.068Z,94.19
2023-03-16T00:27:28.108Z,94.97
2023-03-16T00:29:57.849Z,94.59
2023-03-16T00:32:32.148Z,95.92
2023-03-16T00:34:59.645Z,95.72
2023-03-16T00:37:27.409Z,96.25
2023-03-16T00:39:56.540Z,96.27
2023-03-16T00:42:28.481Z,96.91
2023-03-16T00:44:57.854Z,97.41
2023-03-16T00:47:26.515Z,97.15
2023-03-16T00:49:53.348Z,97.75
2023-03-16T00:52:20.529Z,97.79
2023-03-16T00:54:47.976Z,98.27
2023-03-16T00:57:19.013Z,99.38
2023-03-16T00:59:46.655Z,99.83
2023-03-16T01:02:15.052Z,99.95
2023-03-16T01:04:43.026Z,100.00
2023-03-16T01:07:13.001Z,100.00
2023-03-16T01:09:41.168Z,100.00
2023-03-16T01:12:11.428Z,100.00
2023-03-16T01:14:38.867Z,100.00
2023-03-16T01:17:08.728Z,100.00
2023-03-16T01:19:38.771Z,100.00
2023-03-16T01:22:06.832Z,100.00
2023-03-16T01:24:35.020Z,100.00
2023-03-16T01:27:02.258Z,100.00
2023-03-16T01:29:29.983Z,100.00
2023-03-16T01:31:57.124Z,100.00
2023-03-16T01:34:24.026Z,100.00
2023-03-16T01:36:51.781Z,100.00
2023-03-16T01:39:18.765Z,100.00
2023-03-16T01:41:46.755Z,100.00
2023-03-16T01:44:16.497Z,100.00
2023-03-16T01:46:44.418Z,100.00
2023-03-16T01:49:12.449Z,100.00
2023-03-16T01:51:57.043Z,100.00
2023-03-16T01:54:36.413Z,100.00
2023-03-16T01:57:10.440Z,100.00
2023-03-16T01:59:53.034Z,100.00
2023-03-16T02:02:23.384Z,100.00
2023-03-16T02:05:06.324Z,100.00
2023-03-16T02:07:38.481Z,100.00
2023-03-16T02:10:07.710Z,100.00
2023-03-16T02:12:34.538Z,100.00
2023-03-16T02:15:01.306Z,100.00
2023-03-16T02:17:30.344Z,100.00
2023-03-16T02:20:06.120Z,100.00
2023-03-16T02:22:36.121Z,100.00
2023-03-16T02:25:03.320Z,100.00
2023-03-16T02:27:41.717Z,100.00
2023-03-16T02:30:15.183Z,100.00
2023-03-16T02:32:42.751Z,100.00
2023-03-16T02:35:10.556Z,100.00
2023-03-16T02:37:37.308Z,100.00
2023-03-16T02:40:17.642Z,100.00
2023-03-16T02:42:44.774Z,100.00
2023-03-16T02:45:12.415Z,100.00
2023-03-16T02:47:44.555Z,100.00
2023-03-16T02:50:13.023Z,100.00
2023-03-16T02:52:41.296Z,100.00
2023-03-16T02:55:08.955Z,100.00
2023-03-16T02:57:35.956Z,100.00
2023-03-16T03:00:07.787Z,100.00
2023-03-16T03:02:34.622Z,100.00
2023-03-16T03:05:02.143Z,100.00
2023-03-16T03:07:32.026Z,100.00
2023-03-16T03:09:59.130Z,100.00
2023-03-16T03:12:25.869Z,100.00
2023-03-16T03:14:52.709Z,100.00
2023-03-16T03:17:19.674Z,100.00
2023-03-16T03:19:46.980Z,100.00
2023-03-16T03:22:18.593Z,100.00
2023-03-16T03:24:45.550Z,100.00
2023-03-16T03:27:12.304Z,100.00
2023-03-16T03:29:39.178Z,100.00
2023-03-16T03:32:06.823Z,100.00
2023-03-16T03:34:33.662Z,100.00
2023-03-16T03:37:01.236Z,100.00
2023-03-16T03:39:28.183Z,100.00
2023-03-16T03:41:54.951Z,100.00
2023-03-16T03:44:22.879Z,100.00
2023-03-16T03:46:50.149Z,100.00
2023-03-16T03:49:17.266Z,100.00
2023-03-16T03:51:44.822Z,100.00
2023-03-16T03:54:11.706Z,100.00
2023-03-16T03:56:38.662Z,100.00
2023-03-16T03:59:05.816Z,100.00
2023-03-16T04:01:32.729Z,100.00
2023-03-16T04:03:59.651Z,100.00
2023-03-16T04:06:26.489Z,100.00
2023-03-16T04:08:54.524Z,100.00
2023-03-16T04:11:21.632Z,100.00
2023-03-16T04:13:50.973Z,100.00
2023-03-16T04:16:17.912Z,100.00
2023-03-16T04:18:46.230Z,100.00
2023-03-16T04:21:16.829Z,100.00
2023-03-16T04:23:44.656Z,100.00
2023-03-16T04:26:11.697Z,100.00
2023-03-16T04:28:38.982Z,100.00
2023-03-16T04:31:10.816Z,100.00
2023-03-16T04:33:39.304Z,100.00
2023-03-16T04:36:07.335Z,100.00
2023-03-16T04:38:36.001Z,100.00
2023-03-16T04:41:04.928Z,100.00
2023-03-16T04:43:34.607Z,100.00
2023-03-16T04:46:02.458Z,100.00
2023-03-16T04:48:30.757Z,100.00
2023-03-16T04:50:57.575Z,100.00
2023-03-16T04:53:24.808Z,100.00
2023-03-16T04:55:51.553Z,100.00
2023-03-16T04:58:18.289Z,100.00
2023-03-16T05:00:45.694Z,100.00
2023-03-16T05:03:12.579Z,100.00
2023-03-16T05:05:39.830Z,100.00
2023-03-16T05:08:07.571Z,100.00
2023-03-16T05:10:34.885Z,100.00
2023-03-16T05:13:01.635Z,100.00
2023-03-16T05:15:28.560Z,100.00
2023-03-16T05:17:56.227Z,100.00
2023-03-16T05:20:24.031Z,100.00
2023-03-16T05:22:51.950Z,100.00
2023-03-16T05:25:19.876Z,100.00
2023-03-16T05:27:52.064Z,100.00
2023-03-16T05:30:20.159Z,100.00
2023-03-16T05:32:47.211Z,100.00
2023-03-16T05:35:14.374Z,100.00
2023-03-16T05:37:41.878Z,100.00
2023-03-16T05:40:18.255Z,100.00
2023-03-16T05:42:46.959Z,100.00
2023-03-16T05:45:15.704Z,100.00
2023-03-16T05:47:43.923Z,100.00
2023-03-16T05:50:12.759Z,100.00
2023-03-16T05:52:40.336Z,100.00
2023-03-16T05:55:08.812Z,100.00
2023-03-16T05:57:35.810Z,100.00
2023-03-16T06:00:14.870Z,100.00
2023-03-16T06:02:49.348Z,100.00
2023-03-16T06:05:18.066Z,100.00
2023-03-16T06:07:45.302Z,100.00
2023-03-16T06:10:13.103Z,100.00
2023-03-16T06:12:41.356Z,100.00
2023-03-16T06:15:10.396Z,100.00
2023-03-16T06:17:38.522Z,100.00
2023-03-16T06:20:11.387Z,100.00
2023-03-16T06:22:40.068Z,100.00
2023-03-16T06:25:07.984Z,100.00
2023-03-16T06:27:34.761Z,100.00
2023-03-16T06:30:01.765Z,100.00
2023-03-16T06:32:28.955Z,100.00
2023-03-16T06:34:55.837Z,100.00
2023-03-16T06:37:23.238Z,100.00
2023-03-16T06:39:50.116Z,100.00
2023-03-16T06:42:16.953Z,100.00
2023-03-16T06:44:43.733Z,100.00
2023-03-16T06:47:10.613Z,100.00
2023-03-16T06:49:37.676Z,100.00
2023-03-16T06:52:04.946Z,100.00
2023-03-16T06:54:35.636Z,100.00
2023-03-16T06:57:02.405Z,100.00
2023-03-16T06:59:29.915Z,100.00
2023-03-16T07:01:57.025Z,100.00
2023-03-16T07:04:24.259Z,98.01
2023-03-16T07:06:51.538Z,80.76
2023-03-16T07:09:18.410Z,81.16
2023-03-16T07:11:45.186Z,76.04
2023-03-16T07:14:12.088Z,71.47
2023-03-16T07:16:38.908Z,70.92
2023-03-16T07:19:05.827Z,68.97
2023-03-16T07:21:39.398Z,65.89
2023-03-16T07:24:07.582Z,66.18
2023-03-16T07:26:34.384Z,63.92
2023-03-16T07:29:01.487Z,59.60
2023-03-16T07:31:28.468Z,57.28
2023-03-16T07:33:55.246Z,57.14
2023-03-16T07:36:22.039Z,56.61
2023-03-16T07:38:48.919Z,59.14
2023-03-16T07:41:15.660Z,59.86
2023-03-16T07:43:42.430Z,53.91
2023-03-16T07:46:09.210Z,56.36
2023-03-16T07:48:36.156Z,54.10
2023-03-16T07:51:02.950Z,54.72
2023-03-16T07:53:29.707Z,49.22
2023-03-16T07:55:56.467Z,47.34
2023-03-16T07:58:23.336Z,46.36
2023-03-16T08:00:49.957Z,46.29
2023-03-16T08:03:16.902Z,49.42
2023-03-16T08:05:43.536Z,48.81
2023-03-16T08:08:10.178Z,47.21
2023-03-16T08:10:37.410Z,45.73
2023-03-16T08:13:07.029Z,44.33
2023-03-16T08:15:34.125Z,49.56
2023-03-16T08:18:02.583Z,47.48
2023-03-16T08:20:30.723Z,45.21
2023-03-16T08:22:57.564Z,44.40
2023-03-16T08:25:24.591Z,43.16
2023-03-16T08:27:51.364Z,43.01
2023-03-16T08:30:18.053Z,43.13
2023-03-16T08:32:45.002Z,44.25
2023-03-16T08:35:16.854Z,44.10
2023-03-16T08:37:43.967Z,43.88
2023-03-16T08:40:13.947Z,42.38
2023-03-16T08:42:41.489Z,44.32
2023-03-16T08:45:12.269Z,44.90
2023-03-16T08:47:40.694Z,44.17
2023-03-16T08:50:07.986Z,43.42
2023-03-16T08:52:34.784Z,44.25
2023-03-16T08:55:03.996Z,45.82
2023-03-16T08:57:31.065Z,43.31
2023-03-16T08:59:57.714Z,43.31
2023-03-16T09:02:25.126Z,48.86
2023-03-16T09:04:53.015Z,41.92
2023-03-16T09:07:20.687Z,41.79
2023-03-16T09:09:47.305Z,42.40
2023-03-16T09:12:13.991Z,40.16
2023-03-16T09:14:40.708Z,40.41
2023-03-16T09:17:11.949Z,40.52
2023-03-16T09:19:57.748Z,49.94
2023-03-16T09:22:28.988Z,48.69
2023-03-16T09:24:55.839Z,45.32
2023-03-16T09:27:22.742Z,48.67
2023-03-16T09:29:53.176Z,49.03
2023-03-16T09:32:19.866Z,50.24
2023-03-16T09:34:46.521Z,51.62
2023-03-16T09:37:13.405Z,56.95
2023-03-16T09:39:40.061Z,57.00
2023-03-16T09:42:06.658Z,56.81
2023-03-16T09:44:33.262Z,56.34
2023-03-16T09:47:01.819Z,54.48
2023-03-16T09:49:32.144Z,52.59
2023-03-16T09:52:19.043Z,57.22
2023-03-16T09:55:05.209Z,54.74
2023-03-16T09:57:34.978Z,52.80
2023-03-16T10:00:17.482Z,52.31
2023-03-16T10:02:44.692Z,53.18
2023-03-16T10:05:16.195Z,54.05
2023-03-16T10:07:58.542Z,55.60
2023-03-16T10:10:43.186Z,53.67
2023-03-16T10:13:16.923Z,55.59
2023-03-16T10:15:43.738Z,53.27
2023-03-16T10:18:15.041Z,50.33
2023-03-16T10:20:42.163Z,49.59
2023-03-16T10:23:17.248Z,49.13
2023-03-16T10:25:46.419Z,49.11
2023-03-16T10:28:20.190Z,48.30
2023-03-16T10:30:48.129Z,49.14
2023-03-16T10:33:28.081Z,46.24
2023-03-16T10:35:57.802Z,44.99
2023-03-16T10:38:27.418Z,45.38
2023-03-16T10:40:54.234Z,46.59
2023-03-16T10:43:20.928Z,44.04
2023-03-16T10:45:47.626Z,43.12
2023-03-16T10:48:16.747Z,43.60
2023-03-16T10:50:44.652Z,44.06
2023-03-16T10:53:21.812Z,44.64
2023-03-16T10:55:48.548Z,43.88
2023-03-16T11:11:08.597Z,40.95
2023-03-16T11:13:36.373Z,40.67
2023-03-16T11:16:14.435Z,39.79
2023-03-16T11:18:43.822Z,39.31
2023-03-16T11:21:30.752Z,39.38
2023-03-16T11:23:58.932Z,39.73
2023-03-16T11:26:25.538Z,39.43
2023-03-16T11:28:59.382Z,39.25
2023-03-16T11:31:40.568Z,37.86
2023-03-16T11:34:15.172Z,38.56
2023-03-16T11:36:50.433Z,37.86
2023-03-16T11:39:37.765Z,36.96
2023-03-16T11:42:16.640Z,37.53
2023-03-16T11:44:58.589Z,37.13
2023-03-16T11:47:43.601Z,37.57
2023-03-16T11:50:26.001Z,36.28
2023-03-16T11:53:00.366Z,35.96
2023-03-16T11:55:43.738Z,35.36
2023-03-16T11:58:36.773Z,35.92
2023-03-16T12:01:09.599Z,35.67
2023-03-16T12:03:42.185Z,35.67
2023-03-16T12:06:24.432Z,34.87
2023-03-16T12:08:54.931Z,35.56
2023-03-16T12:11:21.530Z,34.34
2023-03-16T12:13:52.618Z,33.96
2023-03-16T12:16:39.080Z,34.89
2023-03-16T12:19:22.239Z,33.53
2023-03-16T12:21:52.644Z,34.05
2023-03-16T12:24:22.454Z,34.80
2023-03-16T12:26:49.827Z,34.22
2023-03-16T12:29:41.590Z,34.11
2023-03-16T12:32:27.409Z,33.84
2023-03-16T12:35:07.518Z,33.01
2023-03-16T12:37:36.164Z,33.08
2023-03-16T12:40:09.346Z,32.80
2023-03-16T12:42:40.000Z,32.86
2023-03-16T12:45:21.869Z,32.67
2023-03-16T12:47:52.397Z,32.27
2023-03-16T12:50:19.983Z,32.11
2023-03-16T12:52:48.122Z,30.74
2023-03-16T12:55:21.004Z,30.25
2023-03-16T12:57:49.901Z,30.59
2023-03-16T13:00:16.736Z,30.86
2023-03-16T13:02:46.092Z,30.26
2023-03-16T13:05:15.190Z,30.75
2023-03-16T13:07:50.851Z,31.15
2023-03-16T13:10:21.078Z,30.17
2023-03-16T13:12:48.444Z,30.19
2023-03-16T13:15:22.348Z,29.95
2023-03-16T13:18:10.549Z,30.02
2023-03-16T13:21:01.052Z,30.44
2023-03-16T13:23:30.269Z,30.59
2023-03-16T13:26:05.824Z,30.25
2023-03-16T13:28:37.009Z,29.20
2023-03-16T13:31:05.059Z,28.95
2023-03-16T13:33:37.024Z,29.18
2023-03-16T13:36:06.520Z,29.49
2023-03-16T13:38:33.484Z,29.58
2023-03-16T13:41:11.832Z,29.32
2023-03-16T13:43:42.825Z,29.10
2023-03-16T13:46:22.612Z,29.71
2023-03-16T13:48:50.508Z,28.90
2023-03-16T13:51:21.318Z,29.48
2023-03-16T13:53:49.451Z,30.11
2023-03-16T13:56:21.478Z,29.26
2023-03-16T13:58:52.245Z,29.14
2023-03-16T14:01:29.637Z,29.39
2023-03-16T14:04:00.602Z,29.34
2023-03-16T14:06:31.516Z,28.72
2023-03-16T14:09:05.286Z,28.42
2023-03-16T14:11:32.294Z,28.78
2023-03-16T14:14:00.696Z,28.38
2023-03-16T14:16:32.203Z,28.16
2023-03-16T14:19:01.913Z,28.52
2023-03-16T14:21:31.923Z,28.35
2023-03-16T14:24:23.643Z,28.38
2023-03-16T14:26:50.446Z,28.63
2023-03-16T14:29:31.230Z,29.52
2023-03-16T14:32:00.227Z,29.14
2023-03-16T14:34:27.116Z,28.27
2023-03-16T14:36:53.954Z,28.36
2023-03-16T14:39:21.862Z,28.30
2023-03-16T14:41:50.212Z,28.94
2023-03-16T14:44:27.077Z,28.92
2023-03-16T14:46:57.537Z,28.94
2023-03-16T14:49:33.863Z,28.57
2023-03-16T14:52:15.463Z,29.48
2023-03-16T14:54:42.244Z,28.81
2023-03-16T14:57:16.992Z,28.87
2023-03-16T14:59:43.878Z,29.37
2023-03-16T15:02:17.776Z,29.68
2023-03-16T15:04:45.847Z,28.91
2023-03-16T15:07:34.881Z,29.04
2023-03-16T15:10:26.958Z,29.19
2023-03-16T15:13:04.481Z,29.29
2023-03-16T15:15:31.798Z,29.71
2023-03-16T15:18:00.019Z,29.85
2023-03-16T15:20:35.388Z,29.99
2023-03-16T15:23:05.106Z,30.19
2023-03-16T15:25:40.790Z,30.42
2023-03-16T15:28:17.745Z,30.19
2023-03-16T15:30:56.733Z,30.11
2023-03-16T15:33:24.697Z,30.57
2023-03-16T15:35:53.641Z,29.83
2023-03-16T15:38:27.622Z,29.66
2023-03-16T15:40:54.576Z,29.47
2023-03-16T15:43:25.033Z,29.64
2023-03-16T15:45:55.084Z,29.28
2023-03-16T15:48:24.658Z,29.34
2023-03-16T15:51:09.245Z,29.51
2023-03-16T15:53:46.126Z,29.94
2023-03-16T15:56:17.800Z,30.27
2023-03-16T15:58:46.033Z,30.25
2023-03-16T16:01:22.627Z,30.34
2023-03-16T16:03:51.222Z,30.83
2023-03-16T16:06:18.362Z,30.44
2023-03-16T16:08:45.138Z,30.60
2023-03-16T16:11:18.159Z,30.57
2023-03-16T16:13:46.389Z,31.02
2023-03-16T16:16:18.382Z,30.78
2023-03-16T16:18:47.711Z,30.74
2023-03-16T16:21:23.209Z,31.06
2023-03-16T16:23:51.895Z,30.81
2023-03-16T16:26:46.978Z,31.05
2023-03-16T16:29:18.609Z,31.41
2023-03-16T16:31:45.745Z,31.54
2023-03-16T16:34:27.487Z,31.98
2023-03-16T16:36:56.458Z,31.82
2023-03-16T16:39:24.249Z,32.18
2023-03-16T16:41:54.327Z,32.01
2023-03-16T16:44:24.867Z,32.21
2023-03-16T16:46:52.484Z,32.53
2023-03-16T16:49:24.183Z,32.98
2023-03-16T16:51:53.186Z,32.88
2023-03-16T16:54:22.793Z,32.55
2023-03-16T16:56:53.299Z,32.58
2023-03-16T16:59:25.238Z,33.14
2023-03-16T17:01:54.871Z,33.17
2023-03-16T17:04:25.543Z,33.30
2023-03-16T17:06:55.971Z,33.41
2023-03-16T17:09:24.306Z,33.62
2023-03-16T17:11:51.765Z,33.76
2023-03-16T17:14:21.396Z,33.76
2023-03-16T17:16:48.636Z,34.23
2023-03-16T17:19:19.888Z,34.21
2023-03-16T17:21:46.954Z,34.52
2023-03-16T17:24:13.853Z,34.94
2023-03-16T17:26:47.163Z,34.73
2023-03-16T17:29:34.006Z,34.75
2023-03-16T17:32:03.807Z,34.94
2023-03-16T17:34:33.620Z,35.03
2023-03-16T17:37:02.093Z,35.14
2023-03-16T17:39:32.967Z,35.44
2023-03-16T17:42:04.309Z,35.55
2023-03-16T17:44:34.903Z,35.72
2023-03-16T17:47:02.726Z,36.09
2023-03-16T17:49:31.357Z,36.40
2023-03-16T17:51:59.096Z,36.49
2023-03-16T17:54:27.698Z,36.61
2023-03-16T17:56:55.298Z,36.80
2023-03-16T17:59:23.850Z,37.04
2023-03-16T18:01:51.878Z,36.99
2023-03-16T18:04:25.471Z,37.15
2023-03-16T18:06:54.206Z,37.46
2023-03-16T18:09:22.874Z,38.23
2023-03-16T18:11:53.370Z,39.03
2023-03-16T18:14:35.886Z,39.96
2023-03-16T18:17:30.717Z,40.72
2023-03-16T18:19:59.357Z,41.24
2023-03-16T18:22:28.486Z,42.29
2023-03-16T18:24:56.786Z,42.90
2023-03-16T18:27:25.096Z,42.13
2023-03-16T18:29:52.503Z,43.13
2023-03-16T18:32:25.575Z,43.47
2023-03-16T18:34:53.927Z,44.75
2023-03-16T18:37:25.217Z,45.45
2023-03-16T18:39:54.639Z,46.94
2023-03-16T18:42:26.033Z,46.84
2023-03-16T18:44:54.017Z,48.04
2023-03-16T18:47:31.883Z,49.25
2023-03-16T18:50:00.479Z,47.22
2023-03-16T18:52:32.723Z,46.37
2023-03-16T18:55:00.246Z,47.50
2023-03-16T18:57:32.383Z,45.86
2023-03-16T19:00:00.114Z,46.36
2023-03-16T19:02:43.193Z,45.79
2023-03-16T19:05:20.882Z,46.49
2023-03-16T19:07:52.637Z,47.43
2023-03-16T19:10:32.678Z,47.16
2023-03-16T19:13:00.694Z,47.36
2023-03-16T19:15:34.656Z,47.79
2023-03-16T19:18:02.963Z,48.25
2023-03-16T19:20:33.706Z,47.84
2023-03-16T19:23:16.790Z,48.61
2023-03-16T19:25:44.714Z,49.99
2023-03-16T19:28:23.558Z,50.74
2023-03-16T19:30:51.232Z,51.13
2023-03-16T19:33:30.941Z,50.94
2023-03-16T19:36:00.652Z,51.85
2023-03-16T19:38:29.202Z,53.77
2023-03-16T19:41:01.280Z,53.27
2023-03-16T19:43:29.759Z,54.67
2023-03-16T19:45:57.998Z,56.82
2023-03-16T19:48:34.829Z,56.27
2023-03-16T19:51:05.080Z,57.93
2023-03-16T19:53:33.414Z,59.53
2023-03-16T19:56:09.208Z,60.12
2023-03-16T19:58:40.413Z,61.46
2023-03-16T20:01:44.080Z,61.45
2023-03-16T20:04:38.838Z,61.21
2023-03-16T20:07:08.684Z,58.34
2023-03-16T20:09:36.409Z,57.93
2023-03-16T20:12:03.894Z,57.26
2023-03-16T20:14:34.080Z,57.00
2023-03-16T20:17:02.166Z,57.45
2023-03-16T20:19:31.271Z,59.11
2023-03-16T20:22:00.171Z,60.39
2023-03-16T20:24:29.540Z,60.53
2023-03-16T20:26:57.395Z,60.61
2023-03-16T20:29:35.010Z,62.78
2023-03-16T20:32:04.247Z,64.67
2023-03-16T20:34:32.843Z,66.59
2023-03-16T20:37:00.786Z,68.11
2023-03-16T20:39:28.808Z,67.59
2023-03-16T20:41:56.631Z,68.25
2023-03-16T20:44:28.721Z,72.56
2023-03-16T20:46:56.958Z,74.68
2023-03-16T20:49:25.762Z,78.26
2023-03-16T20:51:53.778Z,75.65
2023-03-16T20:54:21.166Z,80.33
2023-03-16T20:56:49.800Z,81.47
2023-03-16T20:59:25.388Z,81.05
2023-03-16T21:01:54.879Z,78.56
2023-03-16T21:04:28.345Z,76.55
2023-03-16T21:06:57.350Z,77.03
2023-03-16T21:09:24.677Z,77.68
2023-03-16T21:11:52.606Z,78.08
2023-03-16T21:14:24.857Z,78.68
2023-03-16T21:16:53.409Z,79.72
2023-03-16T21:19:23.090Z,81.02
2023-03-16T21:21:53.748Z,82.69
2023-03-16T21:24:21.299Z,82.81
2023-03-16T21:26:48.189Z,79.57
2023-03-16T21:29:21.452Z,80.94
2023-03-16T21:31:48.725Z,82.84
2023-03-16T21:34:24.657Z,85.12
2023-03-16T21:36:51.692Z,83.42
2023-03-16T21:39:22.700Z,86.60
2023-03-16T21:41:50.964Z,87.55
2023-03-16T21:44:18.622Z,89.75
2023-03-16T21:46:47.470Z,89.29
2023-03-16T21:49:15.072Z,89.15
2023-03-16T21:51:43.388Z,90.73
2023-03-16T21:54:15.455Z,93.34
2023-03-16T21:56:43.106Z,93.96
2023-03-16T21:59:10.891Z,92.66
2023-03-16T22:01:54.362Z,93.26
2023-03-16T22:04:25.334Z,91.42
2023-03-16T22:06:52.434Z,93.87
2023-03-16T22:09:22.553Z,93.73
2023-03-16T22:11:49.831Z,96.60
2023-03-16T22:14:16.615Z,94.47
2023-03-16T22:16:43.612Z,96.09
2023-03-16T22:19:14.706Z,96.65
2023-03-16T22:21:43.924Z,95.32
2023-03-16T22:24:19.579Z,97.04
2023-03-16T22:26:47.746Z,97.39
2023-03-16T22:29:29.377Z,97.69
2023-03-16T22:31:57.808Z,98.54
2023-03-16T22:34:42.828Z,99.24
2023-03-16T22:37:12.625Z,100.00
2023-03-16T22:39:40.613Z,100.00
2023-03-16T22:42:19.444Z,100.00
2023-03-16T22:44:46.250Z,100.00
2023-03-16T22:47:25.124Z,100.00
2023-03-16T22:49:52.566Z,100.00
2023-03-16T22:52:19.743Z,100.00
2023-03-16T22:54:47.025Z,100.00
2023-03-16T22:57:16.948Z,100.00
2023-03-16T22:59:45.886Z,100.00
2023-03-16T23:02:15.456Z,100.00
2023-03-16T23:04:42.533Z,100.00
2023-03-16T23:07:13.632Z,100.00
2023-03-16T23:09:40.827Z,100.00
2023-03-16T23:12:17.623Z,100.00
2023-03-16T23:14:44.424Z,100.00
2023-03-16T23:17:19.607Z,100.00
2023-03-16T23:19:48.277Z,100.00
2023-03-16T23:22:15.692Z,100.00
2023-03-16T23:24:42.603Z,100.00
2023-03-16T23:27:22.509Z,100.00
2023-03-16T23:29:49.515Z,100.00
2023-03-16T23:32:19.539Z,100.00
2023-03-16T23:34:46.544Z,100.00
2023-03-16T23:37:13.350Z,100.00
2023-03-16T23:39:40.151Z,100.00
2023-03-16T23:42:07.693Z,100.00
2023-03-16T23:44:34.850Z,100.00
2023-03-16T23:47:02.258Z,100.00
2023-03-16T23:49:33.116Z,100.00
2023-03-16T23:52:01.752Z,100.00
2023-03-16T23:54:32.008Z,100.00
2023-03-16T23:56:58.913Z,100.00
2023-03-16T23:59:27.504Z,100.00
